Aviation Digital Data Service (ADDS)

Output produced by METARs form (1038 UTC 01 April 2015)
found at http://aviationweather.gov/adds/metars/
 
KPIT 010856Z 0109/0212 28005KT P6SM SKC 
     FM011500 26005KT P6SM BKN060 
     FM012300 18004KT P6SM SKC